French Village, Canada
Current Conditions -  °F | °C
As of 1:00 PM on Friday 24 Oct 2014 (Local Time) from CYHZ Reporting Station
Drizzle Drizzle  
Wind Chill: 57°   Ceiling: 200
Heat Index: 57°   Visibility: 0.5mi
Dew Point: 57°   Wind: 5mph
Humidity: 100%   Direction: 50°NE
Pressure: 29.52"   Gusts: NA
Location:  44.7°N, 63.88°W
Report Text: CYHZ 241600Z 05004KT 1/2SM R14/5000VP6000FT/D R23/5000FT/D -DZ FG VV002 14/14 A2952 RMK FG8 SLP997 DENSITY ALT 900FT
Loading
Personal Weather Stations






























Interactive Weather Map
Tropical Storm Tracking
New forecast layout! Learn more

10-Day Weather Forecast

Advertisements
Track Severe Weather on mobile